Time,TemperatureF,DewpointF,PressureIn,WindDirection,WindDirectionDegrees,WindSpeedMPH,WindSpeedGustMPH,Humidity,HourlyPrecipIn,Conditions,Clouds,dailyrainin,SoftwareType,DateUTC
2013-03-25 00:00:00,32.5,29.1,29.73,ESE,108,0.0,0.0,87,0.00,,---,0.00,VWS V14.01,2013-03-25 04:00:00,
2013-03-25 00:01:00,32.5,29.1,29.73,ESE,108,0.0,0.0,87,0.00,,---,0.00,VWS V14.01,2013-03-25 04:01:00,
2013-03-25 00:03:00,32.4,29.0,29.72,ESE,108,0.0,0.0,87,0.00,,---,0.00,VWS V14.01,2013-03-25 04:03:00,
2013-03-25 00:05:00,32.5,29.1,29.72,ESE,108,0.0,0.0,87,0.00,,---,0.00,VWS V14.01,2013-03-25 04:05:00,
2013-03-25 00:09:00,32.3,28.9,29.73,ESE,108,0.0,0.0,87,0.00,,---,0.00,VWS V14.01,2013-03-25 04:09:00,
2013-03-25 00:10:00,32.3,28.9,29.73,ESE,108,0.0,0.0,87,0.00,,---,0.00,VWS V14.01,2013-03-25 04:10:00,
2013-03-25 00:14:00,32.2,28.8,29.73,ESE,108,0.0,0.0,87,0.00,,---,0.00,VWS V14.01,2013-03-25 04:14:00,
2013-03-25 00:15:00,32.2,28.8,29.73,ESE,108,0.0,0.0,87,0.00,,---,0.00,VWS V14.01,2013-03-25 04:15:00,
2013-03-25 00:19:00,32.1,28.7,29.73,ESE,108,0.0,0.0,87,0.00,,---,0.00,VWS V14.01,2013-03-25 04:19:00,
2013-03-25 00:20:00,32.1,28.7,29.72,ESE,108,0.0,0.0,87,0.00,,---,0.00,VWS V14.01,2013-03-25 04:20:00,
2013-03-25 00:24:00,32.0,28.6,29.73,ESE,108,0.0,0.0,87,0.00,,---,0.00,VWS V14.01,2013-03-25 04:24:00,
2013-03-25 00:25:00,32.0,28.6,29.73,ESE,108,0.0,0.0,87,0.00,,---,0.00,VWS V14.01,2013-03-25 04:25:00,
2013-03-25 00:29:00,31.9,28.5,29.73,ESE,108,0.0,0.0,87,0.00,,---,0.00,VWS V14.01,2013-03-25 04:29:00,
2013-03-25 00:30:00,31.9,28.5,29.73,ESE,108,0.0,0.0,87,0.00,,---,0.00,VWS V14.01,2013-03-25 04:30:00,
2013-03-25 00:34:00,31.8,28.4,29.73,ESE,108,0.0,0.0,87,0.00,,---,0.00,VWS V14.01,2013-03-25 04:34:00,
2013-03-25 00:35:00,31.8,28.4,29.73,ESE,108,0.0,0.0,87,0.00,,---,0.00,VWS V14.01,2013-03-25 04:35:00,
2013-03-25 00:40:00,31.7,28.3,29.72,ESE,108,0.0,0.0,87,0.00,,---,0.00,VWS V14.01,2013-03-25 04:40:00,
2013-03-25 00:45:00,31.6,28.5,29.73,ESE,108,0.0,0.0,88,0.00,,---,0.00,VWS V14.01,2013-03-25 04:45:00,
2013-03-25 00:50:00,31.5,28.4,29.72,ESE,108,0.0,0.0,88,0.00,,---,0.00,VWS V14.01,2013-03-25 04:50:00,
2013-03-25 00:55:00,31.4,28.3,29.72,ESE,108,0.0,0.0,88,0.00,,---,0.00,VWS V14.01,2013-03-25 04:55:00,
2013-03-25 01:00:00,31.3,27.9,29.72,ESE,108,0.0,0.0,87,0.00,,---,0.00,VWS V14.01,2013-03-25 05:00:00,
2013-03-25 01:05:00,31.2,27.8,29.72,ESE,108,0.0,0.0,87,0.00,,---,0.00,VWS V14.01,2013-03-25 05:05:00,
2013-03-25 01:06:00,31.1,28.0,29.72,ESE,108,0.0,0.0,88,0.00,,---,0.00,VWS V14.01,2013-03-25 05:06:00,
2013-03-25 01:10:00,31.1,28.0,29.72,ESE,108,0.0,0.0,88,0.00,,---,0.00,VWS V14.01,2013-03-25 05:10:00,
2013-03-25 01:12:00,31.0,27.9,29.71,ESE,108,0.0,0.0,88,0.00,,---,0.00,VWS V14.01,2013-03-25 05:12:00,
2013-03-25 01:15:00,31.0,27.9,29.72,ESE,108,0.0,0.0,88,0.00,,---,0.00,VWS V14.01,2013-03-25 05:15:00,
2013-03-25 01:17:00,30.9,27.8,29.72,ESE,108,0.0,0.0,88,0.00,,---,0.00,VWS V14.01,2013-03-25 05:17:00,
2013-03-25 01:20:00,30.9,27.8,29.72,ESE,108,0.0,0.0,88,0.00,,---,0.00,VWS V14.01,2013-03-25 05:20:00,
2013-03-25 01:22:00,30.8,27.7,29.72,ESE,108,0.0,0.0,88,0.00,,---,0.00,VWS V14.01,2013-03-25 05:22:00,
2013-03-25 01:25:00,30.8,27.7,29.72,ESE,108,0.0,0.0,88,0.00,,---,0.00,VWS V14.01,2013-03-25 05:25:00,
2013-03-25 01:27:00,30.6,27.5,29.71,ESE,108,0.0,0.0,88,0.00,,---,0.00,VWS V14.01,2013-03-25 05:27:00,
2013-03-25 01:30:00,30.6,27.8,29.71,ESE,108,0.0,0.0,89,0.00,,---,0.00,VWS V14.01,2013-03-25 05:30:00,
2013-03-25 01:32:00,30.6,27.5,29.71,ESE,108,0.0,0.0,88,0.00,,---,0.00,VWS V14.01,2013-03-25 05:32:00,
2013-03-25 01:35:00,30.5,27.4,29.71,ESE,108,0.0,0.0,88,0.00,,---,0.00,VWS V14.01,2013-03-25 05:35:00,
2013-03-25 01:37:00,30.4,27.3,29.71,ESE,108,0.0,0.0,88,0.00,,---,0.00,VWS V14.01,2013-03-25 05:37:00,
2013-03-25 01:40:00,30.4,27.3,29.71,ESE,108,0.0,0.0,88,0.00,,---,0.00,VWS V14.01,2013-03-25 05:40:00,
2013-03-25 01:42:00,30.3,27.2,29.71,ESE,108,0.0,0.0,88,0.00,,---,0.00,VWS V14.01,2013-03-25 05:42:00,
2013-03-25 01:45:00,30.3,27.2,29.71,ESE,108,0.0,0.0,88,0.00,,---,0.00,VWS V14.01,2013-03-25 05:45:00,
2013-03-25 01:48:00,30.2,27.4,29.71,ESE,108,0.0,0.0,89,0.00,,---,0.00,VWS V14.01,2013-03-25 05:48:00,
2013-03-25 01:50:00,30.2,27.4,29.71,ESE,108,0.0,0.0,89,0.00,,---,0.00,VWS V14.01,2013-03-25 05:50:00,
2013-03-25 01:53:00,30.1,27.3,29.71,ESE,108,0.0,0.0,89,0.00,,---,0.00,VWS V14.01,2013-03-25 05:53:00,
2013-03-25 01:55:00,30.2,27.4,29.71,ESE,108,0.0,0.0,89,0.00,,---,0.00,VWS V14.01,2013-03-25 05:55:00,
2013-03-25 01:58:00,30.1,27.3,29.71,ESE,108,0.0,0.0,89,0.00,,---,0.00,VWS V14.01,2013-03-25 05:58:00,
2013-03-25 02:00:00,30.1,27.3,29.71,ESE,108,0.0,0.0,89,0.00,,---,0.00,VWS V14.01,2013-03-25 06:00:00,
2013-03-25 02:03:00,29.9,27.1,29.71,ESE,108,0.0,0.0,89,0.00,,---,0.00,VWS V14.01,2013-03-25 06:03:00,
2013-03-25 02:05:00,29.9,27.1,29.71,ESE,108,0.0,0.0,89,0.00,,---,0.00,VWS V14.01,2013-03-25 06:05:00,
2013-03-25 02:08:00,29.9,27.1,29.71,ESE,108,0.0,0.0,89,0.00,,---,0.00,VWS V14.01,2013-03-25 06:08:00,
2013-03-25 02:10:00,29.9,27.1,29.71,ESE,108,0.0,0.0,89,0.00,,---,0.00,VWS V14.01,2013-03-25 06:10:00,
2013-03-25 02:13:00,29.8,27.2,29.71,ESE,108,1.0,1.0,90,0.00,,---,0.00,VWS V14.01,2013-03-25 06:13:00,
2013-03-25 02:15:00,29.8,27.2,29.71,ESE,108,1.0,1.0,90,0.00,,---,0.00,VWS V14.01,2013-03-25 06:15:00,
2013-03-25 02:18:00,29.8,27.2,29.71,ESE,108,0.0,1.0,90,0.00,,---,0.00,VWS V14.01,2013-03-25 06:18:00,
2013-03-25 02:20:00,29.8,27.2,29.71,ESE,108,0.0,1.0,90,0.00,,---,0.00,VWS V14.01,2013-03-25 06:20:00,
2013-03-25 02:23:00,29.7,27.1,29.71,ESE,108,0.0,0.0,90,0.00,,---,0.00,VWS V14.01,2013-03-25 06:23:00,
2013-03-25 02:25:00,29.7,27.1,29.71,ESE,108,0.0,0.0,90,0.00,,---,0.00,VWS V14.01,2013-03-25 06:25:00,
2013-03-25 02:28:00,29.7,27.1,29.70,ESE,108,0.0,0.0,90,0.00,,---,0.00,VWS V14.01,2013-03-25 06:28:00,
2013-03-25 02:30:00,29.7,27.1,29.70,ESE,108,0.0,0.0,90,0.00,,---,0.00,VWS V14.01,2013-03-25 06:30:00,
2013-03-25 02:34:00,29.6,27.0,29.70,ESE,108,0.0,0.0,90,0.00,,---,0.00,VWS V14.01,2013-03-25 06:34:00,
2013-03-25 02:35:00,29.7,27.1,29.70,ESE,108,0.0,0.0,90,0.00,,---,0.00,VWS V14.01,2013-03-25 06:35:00,
2013-03-25 02:39:00,29.6,27.0,29.70,ESE,108,0.0,0.0,90,0.00,,---,0.00,VWS V14.01,2013-03-25 06:39:00,
2013-03-25 02:40:00,29.6,27.0,29.70,ESE,108,0.0,0.0,90,0.00,,---,0.00,VWS V14.01,2013-03-25 06:40:00,
2013-03-25 02:44:00,29.6,27.0,29.70,ESE,108,0.0,0.0,90,0.00,,---,0.00,VWS V14.01,2013-03-25 06:44:00,
2013-03-25 02:45:00,29.6,27.0,29.70,ESE,108,0.0,0.0,90,0.00,,---,0.00,VWS V14.01,2013-03-25 06:45:00,
2013-03-25 02:49:00,29.5,26.9,29.70,ESE,108,0.0,0.0,90,0.00,,---,0.00,VWS V14.01,2013-03-25 06:49:00,
2013-03-25 02:50:00,29.5,26.9,29.70,ESE,108,0.0,0.0,90,0.00,,---,0.00,VWS V14.01,2013-03-25 06:50:00,
2013-03-25 02:54:00,29.5,27.2,29.70,ESE,108,0.0,0.0,91,0.00,,---,0.00,VWS V14.01,2013-03-25 06:54:00,
2013-03-25 02:55:00,29.5,27.2,29.70,ESE,108,0.0,0.0,91,0.00,,---,0.00,VWS V14.01,2013-03-25 06:55:00,
2013-03-25 02:59:00,29.4,26.8,29.70,ESE,108,0.0,0.0,90,0.00,,---,0.00,VWS V14.01,2013-03-25 06:59:00,
2013-03-25 03:00:00,29.5,27.2,29.70,ESE,108,0.0,0.0,91,0.00,,---,0.00,VWS V14.01,2013-03-25 07:00:00,
2013-03-25 03:05:00,29.4,27.1,29.70,ESE,108,0.0,0.0,91,0.00,,---,0.00,VWS V14.01,2013-03-25 07:05:00,
2013-03-25 03:10:00,29.3,27.0,29.70,ESE,108,0.0,0.0,91,0.00,,---,0.00,VWS V14.01,2013-03-25 07:10:00,
2013-03-25 03:15:00,29.3,27.0,29.70,ESE,108,0.0,0.0,91,0.00,,---,0.00,VWS V14.01,2013-03-25 07:15:00,
2013-03-25 03:20:00,29.3,27.0,29.70,ESE,108,0.0,0.0,91,0.00,,---,0.00,VWS V14.01,2013-03-25 07:20:00,
2013-03-25 03:21:00,29.2,26.9,29.70,ESE,108,0.0,0.0,91,0.00,,---,0.00,VWS V14.01,2013-03-25 07:21:00,
2013-03-25 03:25:00,29.2,26.9,29.70,ESE,108,0.0,0.0,91,0.00,,---,0.00,VWS V14.01,2013-03-25 07:25:00,
2013-03-25 03:26:00,29.2,26.9,29.70,ESE,108,0.0,0.0,91,0.00,,---,0.00,VWS V14.01,2013-03-25 07:26:00,
2013-03-25 03:30:00,29.2,26.9,29.70,ESE,108,0.0,0.0,91,0.00,,---,0.00,VWS V14.01,2013-03-25 07:30:00,
2013-03-25 03:31:00,29.2,26.9,29.70,ESE,108,0.0,0.0,91,0.00,,---,0.00,VWS V14.01,2013-03-25 07:31:00,
2013-03-25 03:35:00,29.2,26.9,29.70,ESE,108,0.0,0.0,91,0.00,,---,0.00,VWS V14.01,2013-03-25 07:35:00,
2013-03-25 03:36:00,29.2,26.9,29.69,ESE,108,0.0,0.0,91,0.00,,---,0.00,VWS V14.01,2013-03-25 07:36:00,
2013-03-25 03:40:00,29.2,26.9,29.70,ESE,108,1.0,1.0,91,0.00,,---,0.00,VWS V14.01,2013-03-25 07:40:00,
2013-03-25 03:41:00,29.2,26.9,29.70,ESE,108,0.0,1.0,91,0.00,,---,0.00,VWS V14.01,2013-03-25 07:41:00,
2013-03-25 03:45:00,29.2,26.9,29.70,ESE,108,0.0,1.0,91,0.00,,---,0.00,VWS V14.01,2013-03-25 07:45:00,
2013-03-25 03:46:00,29.2,26.9,29.69,ESE,108,0.0,1.0,91,0.00,,---,0.00,VWS V14.01,2013-03-25 07:46:00,
2013-03-25 03:50:00,29.2,26.9,29.69,ESE,108,0.0,1.0,91,0.00,,---,0.00,VWS V14.01,2013-03-25 07:50:00,
2013-03-25 03:51:00,29.1,26.8,29.69,ESE,108,0.0,0.0,91,0.00,,---,0.00,VWS V14.01,2013-03-25 07:51:00,
2013-03-25 03:55:00,29.1,26.8,29.69,ESE,108,0.0,0.0,91,0.00,,---,0.00,VWS V14.01,2013-03-25 07:55:00,
2013-03-25 03:57:00,29.1,26.8,29.69,ESE,108,0.0,0.0,91,0.00,,---,0.00,VWS V14.01,2013-03-25 07:57:00,
2013-03-25 04:00:00,29.0,26.7,29.69,ESE,108,0.0,0.0,91,0.00,,---,0.00,VWS V14.01,2013-03-25 08:00:00,
2013-03-25 04:02:00,29.0,26.7,29.69,ESE,108,0.0,0.0,91,0.00,,---,0.00,VWS V14.01,2013-03-25 08:02:00,
2013-03-25 04:05:00,29.0,26.7,29.69,ESE,108,0.0,0.0,91,0.00,,---,0.00,VWS V14.01,2013-03-25 08:05:00,
2013-03-25 04:07:00,29.0,26.7,29.68,ESE,108,0.0,0.0,91,0.00,,---,0.00,VWS V14.01,2013-03-25 08:07:00,
2013-03-25 04:10:00,29.0,26.7,29.68,ESE,108,0.0,0.0,91,0.00,,---,0.00,VWS V14.01,2013-03-25 08:10:00,
2013-03-25 04:12:00,29.0,26.7,29.68,ESE,108,0.0,0.0,91,0.00,,---,0.00,VWS V14.01,2013-03-25 08:12:00,
2013-03-25 04:15:00,29.0,26.7,29.68,ESE,108,0.0,0.0,91,0.00,,---,0.00,VWS V14.01,2013-03-25 08:15:00,
2013-03-25 04:17:00,28.9,26.6,29.68,ESE,108,0.0,0.0,91,0.00,,---,0.00,VWS V14.01,2013-03-25 08:17:00,
2013-03-25 04:20:00,28.9,26.6,29.68,ESE,108,0.0,0.0,91,0.00,,---,0.00,VWS V14.01,2013-03-25 08:20:00,
2013-03-25 04:23:00,28.9,26.6,29.68,ESE,108,0.0,0.0,91,0.00,,---,0.00,VWS V14.01,2013-03-25 08:23:00,
2013-03-25 04:25:00,28.9,26.6,29.68,ESE,108,0.0,0.0,91,0.00,,---,0.00,VWS V14.01,2013-03-25 08:25:00,
2013-03-25 04:28:00,28.9,26.6,29.68,ESE,108,0.0,0.0,91,0.00,,---,0.00,VWS V14.01,2013-03-25 08:28:00,
2013-03-25 04:30:00,28.9,26.6,29.68,ESE,108,0.0,0.0,91,0.00,,---,0.00,VWS V14.01,2013-03-25 08:30:00,
2013-03-25 04:33:00,28.8,26.5,29.68,ESE,108,0.0,2.0,91,0.00,,---,0.00,VWS V14.01,2013-03-25 08:33:00,
2013-03-25 04:35:00,28.8,26.5,29.68,ESE,108,0.0,2.0,91,0.00,,---,0.00,VWS V14.01,2013-03-25 08:35:00,
2013-03-25 04:38:00,28.8,26.5,29.68,ESE,108,0.0,1.0,91,0.00,,---,0.00,VWS V14.01,2013-03-25 08:38:00,
2013-03-25 04:40:00,28.8,26.5,29.68,ESE,108,0.0,1.0,91,0.00,,---,0.00,VWS V14.01,2013-03-25 08:40:00,
2013-03-25 04:43:00,28.8,26.5,29.68,WSW,248,0.0,2.0,91,0.00,,---,0.00,VWS V14.01,2013-03-25 08:43:00,
2013-03-25 04:45:00,28.8,26.5,29.68,WSW,248,0.0,2.0,91,0.00,,---,0.00,VWS V14.01,2013-03-25 08:45:00,
2013-03-25 04:48:00,28.7,26.4,29.68,WSW,248,0.0,0.0,91,0.00,,---,0.00,VWS V14.01,2013-03-25 08:48:00,
2013-03-25 04:50:00,28.8,26.5,29.68,WSW,248,0.0,0.0,91,0.00,,---,0.00,VWS V14.01,2013-03-25 08:50:00,
2013-03-25 04:53:00,28.7,26.4,29.67,WSW,248,0.0,0.0,91,0.00,,---,0.00,VWS V14.01,2013-03-25 08:53:00,
2013-03-25 04:55:00,28.7,26.4,29.67,WSW,248,0.0,0.0,91,0.00,,---,0.00,VWS V14.01,2013-03-25 08:55:00,
2013-03-25 04:59:00,28.7,26.1,29.67,WSW,248,0.0,1.0,90,0.00,,---,0.00,VWS V14.01,2013-03-25 08:59:00,
2013-03-25 05:00:00,28.7,26.1,29.67,WSW,248,0.0,1.0,90,0.00,,---,0.00,VWS V14.01,2013-03-25 09:00:00,
2013-03-25 05:04:00,28.7,26.1,29.67,WSW,248,0.0,1.0,90,0.00,,---,0.00,VWS V14.01,2013-03-25 09:04:00,
2013-03-25 05:05:00,28.7,26.1,29.67,WSW,248,0.0,1.0,90,0.00,,---,0.00,VWS V14.01,2013-03-25 09:05:00,
2013-03-25 05:09:00,28.7,26.1,29.67,WSW,248,0.0,0.0,90,0.00,,---,0.00,VWS V14.01,2013-03-25 09:09:00,
2013-03-25 05:10:00,28.7,26.1,29.68,WSW,248,0.0,1.0,90,0.00,,---,0.00,VWS V14.01,2013-03-25 09:10:00,
2013-03-25 05:14:00,28.7,26.1,29.67,WSW,248,0.0,0.0,90,0.00,,---,0.00,VWS V14.01,2013-03-25 09:14:00,
2013-03-25 05:15:00,28.7,26.1,29.67,WSW,248,0.0,0.0,90,0.00,,---,0.00,VWS V14.01,2013-03-25 09:15:00,
2013-03-25 05:19:00,28.7,26.1,29.67,WSW,248,0.0,0.0,90,0.00,,---,0.00,VWS V14.01,2013-03-25 09:19:00,
2013-03-25 05:20:00,28.7,26.1,29.67,WSW,248,0.0,0.0,90,0.00,,---,0.00,VWS V14.01,2013-03-25 09:20:00,
2013-03-25 05:24:00,28.7,26.1,29.67,WSW,248,0.0,0.0,90,0.00,,---,0.00,VWS V14.01,2013-03-25 09:24:00,
2013-03-25 05:25:00,28.7,26.1,29.67,WSW,248,0.0,0.0,90,0.00,,---,0.00,VWS V14.01,2013-03-25 09:25:00,
2013-03-25 05:30:00,28.7,26.1,29.67,WSW,248,0.0,0.0,90,0.00,,---,0.00,VWS V14.01,2013-03-25 09:30:00,
2013-03-25 05:35:00,28.7,26.1,29.67,WSW,248,0.0,0.0,90,0.00,,---,0.00,VWS V14.01,2013-03-25 09:35:00,
2013-03-25 05:40:00,28.7,26.1,29.67,WSW,248,0.0,0.0,90,0.00,,---,0.00,VWS V14.01,2013-03-25 09:40:00,
2013-03-25 05:45:00,28.7,26.1,29.67,WSW,248,0.0,0.0,90,0.00,,---,0.00,VWS V14.01,2013-03-25 09:45:00,
2013-03-25 05:50:00,28.7,25.9,29.67,WSW,248,0.0,0.0,89,0.00,,---,0.00,VWS V14.01,2013-03-25 09:50:00,
2013-03-25 05:55:00,28.6,25.8,29.67,WSW,248,0.0,0.0,89,0.00,,---,0.00,VWS V14.01,2013-03-25 09:55:00,
2013-03-25 05:56:00,28.6,25.8,29.67,WSW,248,0.0,0.0,89,0.00,,---,0.00,VWS V14.01,2013-03-25 09:56:00,
2013-03-25 06:00:00,28.6,25.8,29.67,WSW,248,0.0,0.0,89,0.00,,---,0.00,VWS V14.01,2013-03-25 10:00:00,
2013-03-25 06:01:00,28.6,25.8,29.67,WSW,248,0.0,0.0,89,0.00,,---,0.00,VWS V14.01,2013-03-25 10:01:00,
2013-03-25 06:05:00,28.6,25.8,29.67,WSW,248,0.0,0.0,89,0.00,,---,0.00,VWS V14.01,2013-03-25 10:05:00,
2013-03-25 06:06:00,28.6,25.8,29.67,WSW,248,0.0,0.0,89,0.00,,---,0.00,VWS V14.01,2013-03-25 10:06:00,
2013-03-25 06:10:00,28.6,25.8,29.67,WSW,248,0.0,0.0,89,0.00,,---,0.00,VWS V14.01,2013-03-25 10:10:00,
2013-03-25 06:11:00,28.6,25.8,29.67,WSW,248,0.0,0.0,89,0.00,,---,0.00,VWS V14.01,2013-03-25 10:11:00,
2013-03-25 06:15:00,28.6,25.8,29.67,WSW,248,0.0,0.0,89,0.00,,---,0.00,VWS V14.01,2013-03-25 10:15:00,
2013-03-25 06:17:00,28.7,25.9,29.67,WSW,248,0.0,1.0,89,0.00,,---,0.00,VWS V14.01,2013-03-25 10:17:00,
2013-03-25 06:20:00,28.7,25.9,29.67,WSW,248,0.0,1.0,89,0.00,,---,0.00,VWS V14.01,2013-03-25 10:20:00,
2013-03-25 06:22:00,28.7,25.6,29.66,WSW,248,0.0,0.0,88,0.00,,---,0.00,VWS V14.01,2013-03-25 10:22:00,
2013-03-25 06:25:00,28.7,25.6,29.66,WSW,248,0.0,0.0,88,0.00,,---,0.00,VWS V14.01,2013-03-25 10:25:00,
2013-03-25 06:27:00,28.8,25.7,29.66,WSW,248,0.0,0.0,88,0.00,,---,0.00,VWS V14.01,2013-03-25 10:27:00,
2013-03-25 06:30:00,28.8,25.7,29.66,WSW,248,0.0,0.0,88,0.00,,---,0.00,VWS V14.01,2013-03-25 10:30:00,
2013-03-25 06:33:00,28.8,25.7,29.66,WSW,248,0.0,0.0,88,0.00,,---,0.00,VWS V14.01,2013-03-25 10:33:00,
2013-03-25 06:35:00,28.8,25.7,29.66,WSW,248,0.0,0.0,88,0.00,,---,0.00,VWS V14.01,2013-03-25 10:35:00,
2013-03-25 06:38:00,28.9,25.8,29.66,WSW,248,0.0,1.0,88,0.00,,---,0.00,VWS V14.01,2013-03-25 10:38:00,
2013-03-25 06:40:00,28.9,25.8,29.66,WSW,248,0.0,1.0,88,0.00,,---,0.00,VWS V14.01,2013-03-25 10:40:00,
2013-03-25 06:43:00,29.0,25.9,29.66,WSW,248,0.0,1.0,88,0.00,,---,0.00,VWS V14.01,2013-03-25 10:43:00,
2013-03-25 06:45:00,29.0,25.9,29.66,WSW,248,0.0,1.0,88,0.00,,---,0.00,VWS V14.01,2013-03-25 10:45:00,
2013-03-25 06:48:00,29.0,25.6,29.66,WSW,248,0.0,1.0,87,0.00,,---,0.00,VWS V14.01,2013-03-25 10:48:00,
2013-03-25 06:50:00,29.0,25.6,29.66,WSW,248,0.0,1.0,87,0.00,,---,0.00,VWS V14.01,2013-03-25 10:50:00,
2013-03-25 06:53:00,29.1,25.7,29.66,WSW,248,0.0,0.0,87,0.00,,---,0.00,VWS V14.01,2013-03-25 10:53:00,
2013-03-25 06:55:00,29.1,25.7,29.66,WSW,248,0.0,0.0,87,0.00,,---,0.00,VWS V14.01,2013-03-25 10:55:00,
2013-03-25 06:58:00,29.1,25.7,29.67,WSW,248,0.0,1.0,87,0.00,,---,0.00,VWS V14.01,2013-03-25 10:58:00,
2013-03-25 07:00:00,29.1,25.7,29.67,WSW,248,0.0,1.0,87,0.00,,---,0.00,VWS V14.01,2013-03-25 11:00:00,
2013-03-25 07:03:00,29.2,25.8,29.66,WSW,248,0.0,0.0,87,0.00,,---,0.00,VWS V14.01,2013-03-25 11:03:00,
2013-03-25 07:05:00,29.2,25.8,29.66,WSW,248,0.0,1.0,87,0.00,,---,0.00,VWS V14.01,2013-03-25 11:05:00,
2013-03-25 07:08:00,29.3,25.9,29.67,WSW,248,0.0,0.0,87,0.00,,---,0.00,VWS V14.01,2013-03-25 11:08:00,
2013-03-25 07:10:00,29.3,25.9,29.66,WSW,248,0.0,1.0,87,0.00,,---,0.00,VWS V14.01,2013-03-25 11:10:00,
2013-03-25 07:14:00,29.4,26.3,29.67,WSW,248,0.0,0.0,88,0.00,,---,0.00,VWS V14.01,2013-03-25 11:14:00,
2013-03-25 07:15:00,29.4,26.3,29.67,WSW,248,0.0,2.0,88,0.00,,---,0.00,VWS V14.01,2013-03-25 11:15:00,
2013-03-25 07:19:00,29.5,26.4,29.67,WSW,248,0.0,0.0,88,0.00,,---,0.00,VWS V14.01,2013-03-25 11:19:00,
2013-03-25 07:20:00,29.5,26.4,29.67,WSW,248,0.0,0.0,88,0.00,,---,0.00,VWS V14.01,2013-03-25 11:20:00,
2013-03-25 07:24:00,29.6,26.5,29.67,WSW,248,0.0,0.0,88,0.00,,---,0.00,VWS V14.01,2013-03-25 11:24:00,
2013-03-25 07:25:00,29.6,26.5,29.67,WSW,248,0.0,1.0,88,0.00,,---,0.00,VWS V14.01,2013-03-25 11:25:00,
2013-03-25 07:29:00,29.8,26.7,29.67,WSW,248,0.0,0.0,88,0.00,,---,0.00,VWS V14.01,2013-03-25 11:29:00,
2013-03-25 07:30:00,29.7,26.6,29.67,WSW,248,0.0,1.0,88,0.00,,---,0.00,VWS V14.01,2013-03-25 11:30:00,
2013-03-25 07:35:00,30.0,26.6,29.67,NNE,20,0.0,1.0,87,0.00,,---,0.00,VWS V14.01,2013-03-25 11:35:00,
2013-03-25 07:40:00,30.3,26.9,29.67,NNE,20,1.0,1.0,87,0.00,,---,0.00,VWS V14.01,2013-03-25 11:40:00,
2013-03-25 07:45:00,30.6,26.9,29.67,NNE,20,0.0,1.0,86,0.00,,---,0.00,VWS V14.01,2013-03-25 11:45:00,
2013-03-25 07:50:00,30.9,26.9,29.67,NNE,20,0.0,0.0,85,0.00,,---,0.00,VWS V14.01,2013-03-25 11:50:00,
2013-03-25 07:55:00,31.2,27.2,29.67,NNE,20,0.0,0.0,85,0.00,,---,0.00,VWS V14.01,2013-03-25 11:55:00,
2013-03-25 08:00:00,31.5,27.2,29.67,NNE,20,0.0,1.0,84,0.00,,---,0.00,VWS V14.01,2013-03-25 12:00:00,
2013-03-25 08:05:00,31.9,27.3,29.67,North,11,0.0,1.0,83,0.00,,---,0.00,VWS V14.01,2013-03-25 12:05:00,
2013-03-25 08:10:00,32.0,27.1,29.67,North,11,0.0,1.0,82,0.00,,---,0.00,VWS V14.01,2013-03-25 12:10:00,
2013-03-25 08:11:00,32.3,27.4,29.67,North,9,2.0,3.0,82,0.00,,---,0.00,VWS V14.01,2013-03-25 12:11:00,
2013-03-25 08:15:00,32.3,27.4,29.67,North,9,1.0,3.0,82,0.00,,---,0.00,VWS V14.01,2013-03-25 12:15:00,
2013-03-25 08:17:00,32.5,27.6,29.67,North,9,0.0,2.0,82,0.00,,---,0.00,VWS V14.01,2013-03-25 12:17:00,
2013-03-25 08:20:00,32.6,27.4,29.67,North,9,1.0,2.0,81,0.00,,---,0.00,VWS V14.01,2013-03-25 12:20:00,
2013-03-25 08:22:00,32.8,27.6,29.67,North,9,1.0,1.0,81,0.00,,---,0.00,VWS V14.01,2013-03-25 12:22:00,
2013-03-25 08:25:00,32.9,27.7,29.67,North,9,2.0,2.0,81,0.00,,---,0.00,VWS V14.01,2013-03-25 12:25:00,
2013-03-25 08:27:00,33.2,27.7,29.67,ENE,58,3.0,4.0,80,0.00,,---,0.00,VWS V14.01,2013-03-25 12:27:00,
2013-03-25 08:30:00,33.2,27.7,29.67,ESE,110,2.0,4.0,80,0.00,,---,0.00,VWS V14.01,2013-03-25 12:30:00,
2013-03-25 08:32:00,33.5,28.0,29.67,ENE,67,1.0,3.0,80,0.00,,---,0.00,VWS V14.01,2013-03-25 12:32:00,
2013-03-25 08:35:00,33.6,28.1,29.67,ENE,67,0.0,3.0,80,0.00,,---,0.00,VWS V14.01,2013-03-25 12:35:00,
2013-03-25 08:37:00,33.9,27.8,29.67,NW,313,4.0,5.0,78,0.00,,---,0.00,VWS V14.01,2013-03-25 12:37:00,
2013-03-25 08:40:00,33.9,27.8,29.67,NE,45,4.0,5.0,78,0.00,,---,0.00,VWS V14.01,2013-03-25 12:40:00,
2013-03-25 08:42:00,34.2,28.1,29.67,NNW,346,2.0,4.0,78,0.00,,---,0.00,VWS V14.01,2013-03-25 12:42:00,
2013-03-25 08:45:00,34.3,28.2,29.67,NNW,346,1.0,4.0,78,0.00,,---,0.00,VWS V14.01,2013-03-25 12:45:00,
2013-03-25 08:47:00,34.4,28.3,29.67,NNE,28,1.0,3.0,78,0.00,,---,0.00,VWS V14.01,2013-03-25 12:47:00,
2013-03-25 08:50:00,34.4,28.0,29.67,NNE,30,3.0,3.0,77,0.00,,---,0.00,VWS V14.01,2013-03-25 12:50:00,
2013-03-25 08:53:00,34.5,28.0,29.67,NE,36,0.0,7.0,77,0.00,,---,0.00,VWS V14.01,2013-03-25 12:53:00,
2013-03-25 08:55:00,34.5,28.0,29.67,NE,36,0.0,7.0,77,0.00,,---,0.00,VWS V14.01,2013-03-25 12:55:00,
2013-03-25 08:58:00,34.8,28.3,29.67,ENE,71,3.0,4.0,77,0.00,,---,0.00,VWS V14.01,2013-03-25 12:58:00,
2013-03-25 09:00:00,34.8,28.3,29.67,ENE,67,2.0,4.0,77,0.00,,---,0.00,VWS V14.01,2013-03-25 13:00:00,
2013-03-25 09:03:00,35.0,28.5,29.67,North,5,2.0,4.0,77,0.00,,---,0.00,VWS V14.01,2013-03-25 13:03:00,
2013-03-25 09:05:00,35.0,28.5,29.67,North,5,2.0,4.0,77,0.00,,---,0.00,VWS V14.01,2013-03-25 13:05:00,
2013-03-25 09:08:00,35.2,28.7,29.67,NNW,329,0.0,5.0,77,0.00,,---,0.00,VWS V14.01,2013-03-25 13:08:00,
2013-03-25 09:10:00,35.2,28.7,29.67,NNW,329,0.0,5.0,77,0.00,,---,0.00,VWS V14.01,2013-03-25 13:10:00,
2013-03-25 09:13:00,35.4,28.9,29.67,NE,40,2.0,2.0,77,0.00,,---,0.00,VWS V14.01,2013-03-25 13:13:00,
2013-03-25 09:15:00,35.4,28.9,29.67,NE,40,0.0,5.0,77,0.00,,---,0.00,VWS V14.01,2013-03-25 13:15:00,
2013-03-25 09:18:00,35.6,29.4,29.66,North,5,1.0,2.0,78,0.00,,---,0.00,VWS V14.01,2013-03-25 13:18:00,
2013-03-25 09:20:00,35.6,29.4,29.66,NW,317,1.0,4.0,78,0.00,,---,0.00,VWS V14.01,2013-03-25 13:20:00,
2013-03-25 09:23:00,35.9,29.7,29.66,East,80,2.0,3.0,78,0.00,,---,0.00,VWS V14.01,2013-03-25 13:23:00,
2013-03-25 09:25:00,35.9,29.7,29.66,East,94,1.0,5.0,78,0.00,,---,0.00,VWS V14.01,2013-03-25 13:25:00,
2013-03-25 09:28:00,36.1,29.9,29.66,NNW,332,0.0,2.0,78,0.00,,---,0.00,VWS V14.01,2013-03-25 13:28:00,
2013-03-25 09:30:00,36.1,29.6,29.66,NNW,339,2.0,5.0,77,0.00,,---,0.00,VWS V14.01,2013-03-25 13:30:00,
2013-03-25 09:34:00,36.4,29.9,29.66,NNE,27,3.0,3.0,77,0.00,,---,0.00,VWS V14.01,2013-03-25 13:34:00,
2013-03-25 09:35:00,36.3,29.8,29.66,ENE,64,2.0,5.0,77,0.00,,---,0.00,VWS V14.01,2013-03-25 13:35:00,
2013-03-25 09:39:00,36.6,30.1,29.66,NNE,27,3.0,5.0,77,0.00,,---,0.00,VWS V14.01,2013-03-25 13:39:00,
2013-03-25 09:40:00,36.6,30.1,29.66,NE,44,3.0,4.0,77,0.00,,---,0.00,VWS V14.01,2013-03-25 13:40:00,
2013-03-25 09:44:00,36.8,30.3,29.66,NE,53,3.0,5.0,77,0.00,,---,0.00,VWS V14.01,2013-03-25 13:44:00,
2013-03-25 09:45:00,36.8,30.3,29.66,East,82,2.0,11.0,77,0.00,,---,0.00,VWS V14.01,2013-03-25 13:45:00,
2013-03-25 09:49:00,36.9,30.4,29.66,ENE,62,4.0,6.0,77,0.00,,---,0.00,VWS V14.01,2013-03-25 13:49:00,
2013-03-25 09:50:00,36.9,30.4,29.66,NE,53,5.0,9.0,77,0.00,,---,0.00,VWS V14.01,2013-03-25 13:50:00,
2013-03-25 09:54:00,37.1,30.6,29.65,ENE,65,6.0,6.0,77,0.00,,---,0.00,VWS V14.01,2013-03-25 13:54:00,
2013-03-25 09:55:00,37.1,30.6,29.66,ENE,71,1.0,8.0,77,0.00,,---,0.00,VWS V14.01,2013-03-25 13:55:00,
2013-03-25 09:59:00,37.3,30.8,29.65,East,100,4.0,10.0,77,0.00,,---,0.00,VWS V14.01,2013-03-25 13:59:00,
2013-03-25 10:00:00,37.3,30.8,29.65,NE,51,8.0,11.0,77,0.00,,---,0.00,VWS V14.01,2013-03-25 14:00:00,
2013-03-25 10:05:00,37.5,31.0,29.65,ENE,70,2.0,3.0,77,0.00,,---,0.00,VWS V14.01,2013-03-25 14:05:00,
2013-03-25 10:10:00,37.8,31.2,29.64,NNE,31,6.0,15.0,77,0.00,,---,0.00,VWS V14.01,2013-03-25 14:10:00,
2013-03-25 10:15:00,38.0,31.4,29.64,NE,45,1.0,9.0,77,0.00,,---,0.00,VWS V14.01,2013-03-25 14:15:00,
2013-03-25 10:20:00,38.2,31.6,29.64,NNE,32,5.0,10.0,77,0.00,,---,0.00,VWS V14.01,2013-03-25 14:20:00,
2013-03-25 10:25:00,38.3,31.7,29.64,NE,44,3.0,11.0,77,0.00,,---,0.00,VWS V14.01,2013-03-25 14:25:00,
2013-03-25 10:26:00,38.4,31.8,29.64,NNE,16,3.0,12.0,77,0.00,,---,0.00,VWS V14.01,2013-03-25 14:26:00,
2013-03-25 10:30:00,38.4,31.8,29.64,NNW,332,6.0,12.0,77,0.00,,---,0.00,VWS V14.01,2013-03-25 14:30:00,
2013-03-25 10:31:00,38.6,32.0,29.63,NE,42,0.0,6.0,77,0.00,,---,0.00,VWS V14.01,2013-03-25 14:31:00,
2013-03-25 10:35:00,38.7,32.1,29.63,ENE,69,3.0,7.0,77,0.00,,---,0.00,VWS V14.01,2013-03-25 14:35:00,
2013-03-25 10:37:00,38.9,32.3,29.63,North,360,2.0,9.0,77,0.00,,---,0.00,VWS V14.01,2013-03-25 14:37:00,
2013-03-25 10:40:00,38.9,32.3,29.63,ENE,74,6.0,9.0,77,0.00,,---,0.00,VWS V14.01,2013-03-25 14:40:00,
2013-03-25 10:42:00,39.3,32.7,29.63,NE,56,4.0,10.0,77,0.00,,---,0.00,VWS V14.01,2013-03-25 14:42:00,
2013-03-25 10:45:00,39.3,32.7,29.63,North,355,3.0,10.0,77,0.00,,---,0.00,VWS V14.01,2013-03-25 14:45:00,
2013-03-25 10:47:00,39.5,32.6,29.63,NNW,343,0.0,6.0,76,0.00,,---,0.00,VWS V14.01,2013-03-25 14:47:00,
2013-03-25 10:50:00,39.6,33.0,29.63,ENE,57,0.0,6.0,77,0.00,,---,0.00,VWS V14.01,2013-03-25 14:50:00,
2013-03-25 10:53:00,39.9,33.0,29.63,NE,53,3.0,5.0,76,0.00,,---,0.00,VWS V14.01,2013-03-25 14:53:00,
2013-03-25 10:55:00,40.0,33.1,29.63,NE,52,2.0,5.0,76,0.00,,---,0.00,VWS V14.01,2013-03-25 14:55:00,
2013-03-25 10:58:00,40.2,33.2,29.63,NE,56,3.0,10.0,76,0.00,,---,0.00,VWS V14.01,2013-03-25 14:58:00,
2013-03-25 11:00:00,40.2,33.2,29.63,NE,36,4.0,10.0,76,0.00,,---,0.00,VWS V14.01,2013-03-25 15:00:00,
2013-03-25 11:03:00,40.3,33.3,29.63,NE,53,6.0,13.0,76,0.00,,---,0.00,VWS V14.01,2013-03-25 15:03:00,
2013-03-25 11:05:00,40.3,33.3,29.63,NE,53,6.0,13.0,76,0.00,,---,0.00,VWS V14.01,2013-03-25 15:05:00,
2013-03-25 11:08:00,40.1,33.2,29.62,NNE,29,2.0,2.0,76,0.00,,---,0.00,VWS V14.01,2013-03-25 15:08:00,
2013-03-25 11:10:00,40.1,33.2,29.63,NNE,30,1.0,10.0,76,0.00,,---,0.00,VWS V14.01,2013-03-25 15:10:00,
2013-03-25 11:13:00,40.2,33.2,29.63,East,99,4.0,6.0,76,0.00,,---,0.00,VWS V14.01,2013-03-25 15:13:00,
2013-03-25 11:15:00,40.2,33.2,29.63,ENE,73,4.0,11.0,76,0.00,,---,0.00,VWS V14.01,2013-03-25 15:15:00,
2013-03-25 11:18:00,40.2,33.2,29.63,East,94,3.0,7.0,76,0.00,,---,0.00,VWS V14.01,2013-03-25 15:18:00,
2013-03-25 11:20:00,40.2,33.2,29.63,East,80,4.0,8.0,76,0.00,,---,0.00,VWS V14.01,2013-03-25 15:20:00,
2013-03-25 11:24:00,40.1,33.2,29.63,ENE,77,5.0,12.0,76,0.00,,---,0.00,VWS V14.01,2013-03-25 15:24:00,
2013-03-25 11:25:00,40.1,33.2,29.63,East,82,8.0,11.0,76,0.00,,---,0.00,VWS V14.01,2013-03-25 15:25:00,
2013-03-25 11:29:00,40.2,33.2,29.63,ENE,58,5.0,9.0,76,0.00,,---,0.00,VWS V14.01,2013-03-25 15:29:00,
2013-03-25 11:30:00,40.2,33.2,29.63,ENE,61,5.0,12.0,76,0.00,,---,0.00,VWS V14.01,2013-03-25 15:30:00,
2013-03-25 11:34:00,40.4,33.5,29.62,NE,54,3.0,12.0,76,0.00,,---,0.00,VWS V14.01,2013-03-25 15:34:00,
2013-03-25 11:35:00,40.4,33.5,29.62,NNE,26,3.0,9.0,76,0.00,,---,0.00,VWS V14.01,2013-03-25 15:35:00,
2013-03-25 11:40:00,40.7,33.4,29.62,ENE,67,4.0,10.0,75,0.00,,---,0.00,VWS V14.01,2013-03-25 15:40:00,
2013-03-25 11:45:00,40.7,33.4,29.62,ENE,77,3.0,10.0,75,0.00,,---,0.00,VWS V14.01,2013-03-25 15:45:00,
2013-03-25 11:50:00,40.8,33.5,29.62,ENE,69,6.0,11.0,75,0.00,,---,0.00,VWS V14.01,2013-03-25 15:50:00,
2013-03-25 11:55:00,41.1,34.8,29.61,NNE,19,12.0,17.0,78,0.00,,---,0.00,VWS V14.01,2013-03-25 15:55:00,
2013-03-25 12:00:00,41.1,33.5,29.61,ESE,109,3.0,7.0,74,0.00,,---,0.00,VWS V14.01,2013-03-25 16:00:00,
2013-03-25 12:05:00,41.2,33.6,29.61,SE,136,7.0,11.0,74,0.00,,---,0.00,VWS V14.01,2013-03-25 16:05:00,
2013-03-25 12:06:00,41.3,33.7,29.61,NE,36,9.0,13.0,74,0.00,,---,0.00,VWS V14.01,2013-03-25 16:06:00,
2013-03-25 12:10:00,41.2,33.2,29.61,East,79,5.0,13.0,73,0.00,,---,0.00,VWS V14.01,2013-03-25 16:10:00,
2013-03-25 12:11:00,41.1,33.5,29.61,NNE,19,3.0,9.0,74,0.00,,---,0.00,VWS V14.01,2013-03-25 16:11:00,
2013-03-25 12:15:00,40.9,33.3,29.61,ESE,120,3.0,9.0,74,0.00,,---,0.00,VWS V14.01,2013-03-25 16:15:00,
2013-03-25 12:16:00,40.7,33.4,29.61,ENE,73,2.0,9.0,75,0.00,,---,0.00,VWS V14.01,2013-03-25 16:16:00,
2013-03-25 12:20:00,40.7,33.4,29.61,East,86,4.0,9.0,75,0.00,,---,0.00,VWS V14.01,2013-03-25 16:20:00,
2013-03-25 12:22:00,41.1,33.8,29.61,NNE,19,7.0,11.0,75,0.00,,---,0.00,VWS V14.01,2013-03-25 16:22:00,
2013-03-25 12:25:00,41.3,34.0,29.61,NNE,17,2.0,11.0,75,0.00,,---,0.00,VWS V14.01,2013-03-25 16:25:00,
2013-03-25 12:27:00,41.2,33.5,29.60,ENE,59,2.0,13.0,74,0.00,,---,0.00,VWS V14.01,2013-03-25 16:27:00,
2013-03-25 12:30:00,41.1,33.5,29.60,East,83,3.0,13.0,74,0.00,,---,0.00,VWS V14.01,2013-03-25 16:30:00,
2013-03-25 12:33:00,40.9,33.3,29.60,North,360,3.0,7.0,74,0.00,,---,0.00,VWS V14.01,2013-03-25 16:33:00,
2013-03-25 12:35:00,40.9,33.3,29.60,NNW,344,5.0,7.0,74,0.00,,---,0.00,VWS V14.01,2013-03-25 16:35:00,
2013-03-25 12:38:00,40.9,33.3,29.61,ENE,65,2.0,13.0,74,0.00,,---,0.00,VWS V14.01,2013-03-25 16:38:00,
2013-03-25 12:40:00,40.9,33.3,29.61,ENE,65,2.0,13.0,74,0.00,,---,0.00,VWS V14.01,2013-03-25 16:40:00,
2013-03-25 12:43:00,40.7,33.1,29.60,ENE,65,3.0,10.0,74,0.00,,---,0.00,VWS V14.01,2013-03-25 16:43:00,
2013-03-25 12:45:00,40.7,33.1,29.60,ENE,65,3.0,10.0,74,0.00,,---,0.00,VWS V14.01,2013-03-25 16:45:00,
2013-03-25 12:48:00,40.8,33.5,29.60,North,360,1.0,2.0,75,0.00,,---,0.00,VWS V14.01,2013-03-25 16:48:00,
2013-03-25 12:50:00,40.8,33.5,29.60,North,360,2.0,9.0,75,0.00,,---,0.00,VWS V14.01,2013-03-25 16:50:00,
2013-03-25 12:53:00,40.9,33.3,29.60,East,86,4.0,9.0,74,0.00,,---,0.00,VWS V14.01,2013-03-25 16:53:00,
2013-03-25 12:55:00,40.9,33.3,29.61,East,82,4.0,12.0,74,0.00,,---,0.00,VWS V14.01,2013-03-25 16:55:00,
2013-03-25 12:58:00,40.8,33.5,29.60,East,92,3.0,4.0,75,0.00,,---,0.00,VWS V14.01,2013-03-25 16:58:00,
2013-03-25 13:00:00,40.8,33.5,29.60,NE,44,4.0,12.0,75,0.00,,---,0.00,VWS V14.01,2013-03-25 17:00:00,
2013-03-25 13:04:00,41.0,33.4,29.60,ENE,65,3.0,6.0,74,0.00,,---,0.00,VWS V14.01,2013-03-25 17:04:00,
2013-03-25 13:05:00,41.0,33.4,29.60,ENE,74,4.0,11.0,74,0.00,,---,0.00,VWS V14.01,2013-03-25 17:05:00,
2013-03-25 13:09:00,41.1,33.5,29.60,ENE,63,4.0,7.0,74,0.00,,---,0.00,VWS V14.01,2013-03-25 17:09:00,
2013-03-25 13:10:00,41.0,33.4,29.60,NNE,19,4.0,11.0,74,0.00,,---,0.00,VWS V14.01,2013-03-25 17:10:00,
2013-03-25 13:14:00,41.1,33.5,29.59,SE,143,1.0,5.0,74,0.00,,---,0.00,VWS V14.01,2013-03-25 17:14:00,
2013-03-25 13:15:00,41.1,33.1,29.59,ENE,74,4.0,11.0,73,0.00,,---,0.00,VWS V14.01,2013-03-25 17:15:00,
2013-03-25 13:19:00,41.3,33.3,29.59,NE,56,2.0,10.0,73,0.00,,---,0.00,VWS V14.01,2013-03-25 17:19:00,
2013-03-25 13:20:00,41.4,33.4,29.59,East,80,4.0,10.0,73,0.00,,---,0.00,VWS V14.01,2013-03-25 17:20:00,
2013-03-25 13:24:00,41.0,33.4,29.58,NE,52,4.0,5.0,74,0.00,,---,0.00,VWS V14.01,2013-03-25 17:24:00,
2013-03-25 13:25:00,41.1,33.5,29.58,NE,46,3.0,15.0,74,0.00,,---,0.00,VWS V14.01,2013-03-25 17:25:00,
2013-03-25 13:30:00,41.2,33.9,29.58,NE,46,5.0,12.0,75,0.00,,---,0.00,VWS V14.01,2013-03-25 17:30:00,
2013-03-25 13:35:00,41.5,33.5,29.58,NNE,22,5.0,11.0,73,0.00,,---,0.00,VWS V14.01,2013-03-25 17:35:00,
2013-03-25 13:40:00,41.4,34.1,29.58,NNE,33,3.0,10.0,75,0.00,,---,0.00,VWS V14.01,2013-03-25 17:40:00,
2013-03-25 13:45:00,42.3,34.3,29.58,East,92,5.0,14.0,73,0.00,,---,0.00,VWS V14.01,2013-03-25 17:45:00,
2013-03-25 13:50:00,42.7,33.6,29.58,North,350,7.0,13.0,70,0.00,,---,0.00,VWS V14.01,2013-03-25 17:50:00,
2013-03-25 13:55:00,42.2,33.8,29.57,NNE,30,10.0,15.0,72,0.00,,---,0.00,VWS V14.01,2013-03-25 17:55:00,
2013-03-25 13:56:00,41.9,33.9,29.57,North,10,4.0,13.0,73,0.00,,---,0.00,VWS V14.01,2013-03-25 17:56:00,
2013-03-25 14:00:00,41.7,33.3,29.57,NE,43,4.0,13.0,72,0.00,,---,0.00,VWS V14.01,2013-03-25 18:00:00,
2013-03-25 14:01:00,41.4,33.4,29.58,NE,49,2.0,11.0,73,0.00,,---,0.00,VWS V14.01,2013-03-25 18:01:00,
2013-03-25 14:05:00,41.4,33.8,29.57,East,84,7.0,11.0,74,0.00,,---,0.00,VWS V14.01,2013-03-25 18:05:00,
2013-03-25 14:07:00,41.1,33.5,29.58,NE,56,8.0,14.0,74,0.00,,---,0.00,VWS V14.01,2013-03-25 18:07:00,
2013-03-25 14:10:00,41.4,34.1,29.57,NE,49,4.0,14.0,75,0.00,,---,0.00,VWS V14.01,2013-03-25 18:10:00,
2013-03-25 14:12:00,41.9,34.2,29.57,NNE,23,5.0,16.0,74,0.00,,---,0.00,VWS V14.01,2013-03-25 18:12:00,
2013-03-25 14:15:00,41.9,33.9,29.57,SE,128,4.0,16.0,73,0.00,,---,0.00,VWS V14.01,2013-03-25 18:15:00,
2013-03-25 14:17:00,41.3,33.7,29.57,East,84,2.0,10.0,74,0.00,,---,0.00,VWS V14.01,2013-03-25 18:17:00,
2013-03-25 14:20:00,41.2,33.6,29.57,ENE,63,2.0,10.0,74,0.00,,---,0.00,VWS V14.01,2013-03-25 18:20:00,
2013-03-25 14:23:00,41.7,34.0,29.57,NE,42,10.0,15.0,74,0.00,,---,0.00,VWS V14.01,2013-03-25 18:23:00,
2013-03-25 14:25:00,41.7,34.0,29.57,ENE,62,10.0,15.0,74,0.00,,---,0.00,VWS V14.01,2013-03-25 18:25:00,
2013-03-25 14:28:00,41.5,33.8,29.57,NNE,21,5.0,14.0,74,0.00,,---,0.00,VWS V14.01,2013-03-25 18:28:00,
2013-03-25 14:30:00,41.5,33.8,29.57,NNE,21,5.0,14.0,74,0.00,,---,0.00,VWS V14.01,2013-03-25 18:30:00,
2013-03-25 14:33:00,42.1,34.4,29.57,ENE,72,4.0,11.0,74,0.00,,---,0.00,VWS V14.01,2013-03-25 18:33:00,
2013-03-25 14:35:00,42.1,34.4,29.57,ENE,72,4.0,11.0,74,0.00,,---,0.00,VWS V14.01,2013-03-25 18:35:00,
2013-03-25 14:38:00,42.2,34.2,29.56,NNW,327,6.0,9.0,73,0.00,,---,0.00,VWS V14.01,2013-03-25 18:38:00,
2013-03-25 14:40:00,42.2,34.2,29.56,ESE,108,7.0,13.0,73,0.00,,---,0.00,VWS V14.01,2013-03-25 18:40:00,
2013-03-25 14:43:00,42.0,33.3,29.56,North,360,2.0,4.0,71,0.00,,---,0.00,VWS V14.01,2013-03-25 18:43:00,
2013-03-25 14:45:00,42.1,33.4,29.56,NE,34,2.0,11.0,71,0.00,,---,0.00,VWS V14.01,2013-03-25 18:45:00,
2013-03-25 14:49:00,41.8,33.5,29.56,NE,38,5.0,10.0,72,0.00,,---,0.00,VWS V14.01,2013-03-25 18:49:00,
2013-03-25 14:50:00,41.8,34.1,29.56,NNE,17,7.0,13.0,74,0.00,,---,0.00,VWS V14.01,2013-03-25 18:50:00,
2013-03-25 14:54:00,41.9,34.2,29.56,ENE,69,6.0,9.0,74,0.00,,---,0.00,VWS V14.01,2013-03-25 18:54:00,
2013-03-25 14:55:00,41.8,33.8,29.56,ESE,102,9.0,10.0,73,0.00,,---,0.00,VWS V14.01,2013-03-25 18:55:00,
2013-03-25 14:59:00,41.8,33.5,29.55,NE,49,7.0,12.0,72,0.00,,---,0.00,VWS V14.01,2013-03-25 18:59:00,
2013-03-25 15:00:00,41.8,33.5,29.55,ENE,58,3.0,12.0,72,0.00,,---,0.00,VWS V14.01,2013-03-25 19:00:00,
2013-03-25 15:04:00,41.6,33.3,29.54,NE,43,4.0,7.0,72,0.00,,---,0.00,VWS V14.01,2013-03-25 19:04:00,
2013-03-25 15:05:00,41.7,33.3,29.54,NE,53,6.0,12.0,72,0.00,,---,0.00,VWS V14.01,2013-03-25 19:05:00,
2013-03-25 15:10:00,41.6,33.3,29.54,ENE,71,5.0,12.0,72,0.00,,---,0.00,VWS V14.01,2013-03-25 19:10:00,
2013-03-25 15:15:00,41.6,33.6,29.53,ENE,69,3.0,6.0,73,0.00,,---,0.00,VWS V14.01,2013-03-25 19:15:00,
2013-03-25 15:20:00,41.7,33.0,29.52,North,5,5.0,12.0,71,0.00,,---,0.00,VWS V14.01,2013-03-25 19:20:00,
2013-03-25 15:25:00,41.6,32.9,29.52,ESE,103,7.0,13.0,71,0.00,,---,0.00,VWS V14.01,2013-03-25 19:25:00,
2013-03-25 15:26:00,41.4,32.7,29.52,NNE,27,6.0,12.0,71,0.00,,---,0.00,VWS V14.01,2013-03-25 19:26:00,
2013-03-25 15:30:00,41.3,32.6,29.52,ENE,63,2.0,12.0,71,0.00,,---,0.00,VWS V14.01,2013-03-25 19:30:00,
2013-03-25 15:31:00,41.1,32.8,29.51,NE,37,6.0,14.0,72,0.00,,---,0.00,VWS V14.01,2013-03-25 19:31:00,
2013-03-25 15:35:00,41.1,32.8,29.51,NE,53,4.0,14.0,72,0.00,,---,0.00,VWS V14.01,2013-03-25 19:35:00,
2013-03-25 15:37:00,40.9,32.6,29.51,North,5,6.0,12.0,72,0.00,,---,0.00,VWS V14.01,2013-03-25 19:37:00,
2013-03-25 15:40:00,40.9,32.6,29.50,ENE,59,4.0,12.0,72,0.00,,---,0.00,VWS V14.01,2013-03-25 19:40:00,
2013-03-25 15:42:00,40.7,32.4,29.50,NNE,23,3.0,10.0,72,0.00,,---,0.00,VWS V14.01,2013-03-25 19:42:00,
2013-03-25 15:45:00,40.7,32.7,29.50,NE,49,3.0,12.0,73,0.00,,---,0.00,VWS V14.01,2013-03-25 19:45:00,
2013-03-25 15:48:00,40.4,32.4,29.49,East,82,2.0,14.0,73,0.00,,---,0.00,VWS V14.01,2013-03-25 19:48:00,
2013-03-25 15:50:00,40.4,32.4,29.49,East,82,2.0,14.0,73,0.00,,---,0.00,VWS V14.01,2013-03-25 19:50:00,
2013-03-25 15:53:00,41.1,33.1,29.49,North,10,7.0,10.0,73,0.00,,---,0.00,VWS V14.01,2013-03-25 19:53:00,
2013-03-25 15:55:00,41.1,33.1,29.49,North,10,7.0,10.0,73,0.00,,---,0.00,VWS V14.01,2013-03-25 19:55:00,
2013-03-25 15:58:00,41.2,33.2,29.49,NNE,27,0.0,12.0,73,0.00,,---,0.00,VWS V14.01,2013-03-25 19:58:00,
2013-03-25 16:00:00,41.2,33.2,29.49,NNE,27,0.0,12.0,73,0.00,,---,0.00,VWS V14.01,2013-03-25 20:00:00,
2013-03-25 16:03:00,41.3,33.0,29.49,NNE,24,12.0,13.0,72,0.00,,---,0.00,VWS V14.01,2013-03-25 20:03:00,
2013-03-25 16:05:00,41.3,33.0,29.49,NNE,24,12.0,13.0,72,0.00,,---,0.00,VWS V14.01,2013-03-25 20:05:00,
2013-03-25 16:08:00,41.0,33.4,29.49,SE,124,1.0,14.0,74,0.00,,---,0.00,VWS V14.01,2013-03-25 20:08:00,
2013-03-25 16:10:00,41.0,33.4,29.49,SE,124,1.0,14.0,74,0.00,,---,0.00,VWS V14.01,2013-03-25 20:10:00,
2013-03-25 16:13:00,40.9,32.6,29.50,NNW,345,4.0,13.0,72,0.00,,---,0.00,VWS V14.01,2013-03-25 20:13:00,
2013-03-25 16:15:00,40.9,32.6,29.50,NNW,345,4.0,13.0,72,0.00,,---,0.00,VWS V14.01,2013-03-25 20:15:00,
2013-03-25 16:18:00,40.9,32.6,29.50,ENE,71,2.0,14.0,72,0.00,,---,0.00,VWS V14.01,2013-03-25 20:18:00,
2013-03-25 16:20:00,40.9,32.6,29.50,ENE,71,2.0,14.0,72,0.00,,---,0.00,VWS V14.01,2013-03-25 20:20:00,
2013-03-25 16:23:00,40.8,32.5,29.50,ENE,70,4.0,12.0,72,0.00,,---,0.00,VWS V14.01,2013-03-25 20:23:00,
2013-03-25 16:25:00,40.8,32.5,29.50,ENE,70,4.0,12.0,72,0.00,,---,0.00,VWS V14.01,2013-03-25 20:25:00,
2013-03-25 16:28:00,40.5,32.2,29.50,NE,53,4.0,4.0,72,0.00,,---,0.00,VWS V14.01,2013-03-25 20:28:00,
2013-03-25 16:30:00,40.5,32.2,29.50,NNW,328,2.0,14.0,72,0.00,,---,0.00,VWS V14.01,2013-03-25 20:30:00,
2013-03-25 16:34:00,40.4,32.4,29.50,NE,47,5.0,7.0,73,0.00,,---,0.00,VWS V14.01,2013-03-25 20:34:00,
2013-03-25 16:35:00,40.4,32.4,29.50,ESE,120,2.0,13.0,73,0.00,,---,0.00,VWS V14.01,2013-03-25 20:35:00,
2013-03-25 16:39:00,40.5,32.5,29.50,ENE,65,10.0,17.0,73,0.00,,---,0.00,VWS V14.01,2013-03-25 20:39:00,
2013-03-25 16:40:00,40.5,32.5,29.49,ESE,106,9.0,9.0,73,0.00,,---,0.00,VWS V14.01,2013-03-25 20:40:00,
2013-03-25 16:44:00,40.2,32.2,29.50,NE,38,13.0,13.0,73,0.00,,---,0.00,VWS V14.01,2013-03-25 20:44:00,
2013-03-25 16:45:00,40.2,32.2,29.50,NE,55,4.0,18.0,73,0.00,,---,0.00,VWS V14.01,2013-03-25 20:45:00,
2013-03-25 16:49:00,40.0,32.4,29.51,NNE,21,0.0,5.0,74,0.00,,---,0.00,VWS V14.01,2013-03-25 20:49:00,
2013-03-25 16:50:00,40.0,32.4,29.50,East,95,5.0,13.0,74,0.00,,---,0.00,VWS V14.01,2013-03-25 20:50:00,
2013-03-25 16:54:00,40.0,32.4,29.50,NE,45,5.0,10.0,74,0.00,,---,0.00,VWS V14.01,2013-03-25 20:54:00,
2013-03-25 16:55:00,40.0,32.4,29.51,NE,40,3.0,10.0,74,0.00,,---,0.00,VWS V14.01,2013-03-25 20:55:00,
2013-03-25 16:59:00,40.0,32.7,29.50,North,5,2.0,5.0,75,0.00,,---,0.00,VWS V14.01,2013-03-25 20:59:00,
2013-03-25 17:00:00,40.0,32.4,29.50,East,84,0.0,10.0,74,0.00,,---,0.00,VWS V14.01,2013-03-25 21:00:00,
2013-03-25 17:05:00,40.0,32.7,29.50,ENE,74,3.0,6.0,75,0.00,,---,0.00,VWS V14.01,2013-03-25 21:05:00,
2013-03-25 17:10:00,39.9,32.6,29.50,ENE,57,4.0,7.0,75,0.00,,---,0.00,VWS V14.01,2013-03-25 21:10:00,
2013-03-25 17:15:00,39.6,32.3,29.50,NE,49,2.0,10.0,75,0.00,,---,0.00,VWS V14.01,2013-03-25 21:15:00,
2013-03-25 17:20:00,39.4,32.2,29.50,ENE,68,4.0,10.0,75,0.00,,---,0.00,VWS V14.01,2013-03-25 21:20:00,
2013-03-25 17:25:00,39.3,32.4,29.50,ENE,74,1.0,6.0,76,0.00,,---,0.00,VWS V14.01,2013-03-25 21:25:00,
2013-03-25 17:30:00,39.3,32.4,29.50,East,84,4.0,6.0,76,0.00,,---,0.00,VWS V14.01,2013-03-25 21:30:00,
2013-03-25 17:31:00,39.3,32.4,29.50,NE,37,3.0,7.0,76,0.00,,---,0.00,VWS V14.01,2013-03-25 21:31:00,
2013-03-25 17:35:00,39.3,32.4,29.50,NE,40,5.0,10.0,76,0.00,,---,0.00,VWS V14.01,2013-03-25 21:35:00,
2013-03-25 17:36:00,39.3,32.4,29.50,NE,36,7.0,13.0,76,0.00,,---,0.00,VWS V14.01,2013-03-25 21:36:00,
2013-03-25 17:40:00,39.3,32.4,29.50,NE,34,5.0,13.0,76,0.00,,---,0.00,VWS V14.01,2013-03-25 21:40:00,
2013-03-25 17:42:00,39.2,32.3,29.50,NE,40,7.0,10.0,76,0.00,,---,0.00,VWS V14.01,2013-03-25 21:42:00,
2013-03-25 17:45:00,39.2,32.6,29.50,NE,47,1.0,10.0,77,0.00,,---,0.00,VWS V14.01,2013-03-25 21:45:00,
2013-03-25 17:47:00,39.2,32.6,29.50,NE,41,4.0,7.0,77,0.00,,---,0.00,VWS V14.01,2013-03-25 21:47:00,
2013-03-25 17:50:00,39.2,32.6,29.50,NE,41,2.0,7.0,77,0.00,,---,0.00,VWS V14.01,2013-03-25 21:50:00,
2013-03-25 17:52:00,39.3,32.7,29.50,NNE,32,5.0,8.0,77,0.00,,---,0.00,VWS V14.01,2013-03-25 21:52:00,
2013-03-25 17:55:00,39.3,32.7,29.50,ENE,64,1.0,8.0,77,0.00,,---,0.00,VWS V14.01,2013-03-25 21:55:00,
2013-03-25 17:57:00,39.2,32.6,29.51,NE,39,3.0,10.0,77,0.00,,---,0.00,VWS V14.01,2013-03-25 21:57:00,
2013-03-25 18:00:00,39.2,32.6,29.51,ENE,66,5.0,10.0,77,0.00,,---,0.00,VWS V14.01,2013-03-25 22:00:00,
2013-03-25 18:02:00,39.1,32.5,29.51,NE,51,10.0,10.0,77,0.00,,---,0.00,VWS V14.01,2013-03-25 22:02:00,
2013-03-25 18:05:00,39.1,32.5,29.51,ENE,74,11.0,11.0,77,0.00,,---,0.00,VWS V14.01,2013-03-25 22:05:00,
2013-03-25 18:07:00,39.0,32.4,29.50,ENE,78,10.0,11.0,77,0.00,,---,0.00,VWS V14.01,2013-03-25 22:07:00,
2013-03-25 18:10:00,38.9,32.3,29.50,ENE,65,4.0,11.0,77,0.00,,---,0.00,VWS V14.01,2013-03-25 22:10:00,
2013-03-25 18:12:00,38.9,32.3,29.50,NE,39,9.0,12.0,77,0.00,,---,0.00,VWS V14.01,2013-03-25 22:12:00,
2013-03-25 18:15:00,38.9,32.3,29.50,ENE,61,6.0,12.0,77,0.00,,---,0.00,VWS V14.01,2013-03-25 22:15:00,
2013-03-25 18:18:00,38.8,32.5,29.51,NE,47,5.0,8.0,78,0.00,,---,0.00,VWS V14.01,2013-03-25 22:18:00,
2013-03-25 18:20:00,38.8,32.5,29.51,NE,47,5.0,8.0,78,0.00,,---,0.00,VWS V14.01,2013-03-25 22:20:00,
2013-03-25 18:23:00,38.8,32.9,29.51,East,82,1.0,10.0,79,0.00,,---,0.00,VWS V14.01,2013-03-25 22:23:00,
2013-03-25 18:25:00,38.8,32.9,29.51,East,82,1.0,10.0,79,0.00,,---,0.00,VWS V14.01,2013-03-25 22:25:00,
2013-03-25 18:28:00,38.8,32.5,29.50,NE,44,2.0,11.0,78,0.00,,---,0.00,VWS V14.01,2013-03-25 22:28:00,
2013-03-25 18:30:00,38.8,32.5,29.50,NE,44,2.0,11.0,78,0.00,,---,0.00,VWS V14.01,2013-03-25 22:30:00,
2013-03-25 18:33:00,38.7,32.8,29.51,ENE,58,1.0,2.0,79,0.00,,---,0.00,VWS V14.01,2013-03-25 22:33:00,
2013-03-25 18:35:00,38.7,32.8,29.50,ENE,58,2.0,11.0,79,0.00,,---,0.00,VWS V14.01,2013-03-25 22:35:00,
2013-03-25 18:38:00,38.6,32.7,29.51,NE,36,3.0,6.0,79,0.00,,---,0.00,VWS V14.01,2013-03-25 22:38:00,
2013-03-25 18:40:00,38.6,32.7,29.51,NE,36,3.0,6.0,79,0.00,,---,0.00,VWS V14.01,2013-03-25 22:40:00,
2013-03-25 18:43:00,38.5,32.6,29.51,ENE,60,0.0,11.0,79,0.00,,---,0.00,VWS V14.01,2013-03-25 22:43:00,
2013-03-25 18:45:00,38.5,32.6,29.51,ENE,60,0.0,11.0,79,0.00,,---,0.00,VWS V14.01,2013-03-25 22:45:00,
2013-03-25 18:48:00,38.4,32.5,29.51,NE,44,3.0,13.0,79,0.00,,---,0.00,VWS V14.01,2013-03-25 22:48:00,
2013-03-25 18:50:00,38.4,32.5,29.51,NE,44,3.0,13.0,79,0.00,,---,0.00,VWS V14.01,2013-03-25 22:50:00,
2013-03-25 18:53:00,38.3,32.4,29.51,NE,56,6.0,9.0,79,0.00,,---,0.00,VWS V14.01,2013-03-25 22:53:00,
2013-03-25 18:55:00,38.3,32.4,29.51,NE,56,6.0,9.0,79,0.00,,---,0.00,VWS V14.01,2013-03-25 22:55:00,
2013-03-25 18:58:00,38.3,32.0,29.51,NE,47,1.0,11.0,78,0.00,,---,0.00,VWS V14.01,2013-03-25 22:58:00,
2013-03-25 19:00:00,38.3,32.0,29.51,NE,47,1.0,11.0,78,0.00,,---,0.00,VWS V14.01,2013-03-25 23:00:00,
2013-03-25 19:03:00,38.2,32.0,29.51,NNE,23,4.0,5.0,78,0.00,,---,0.00,VWS V14.01,2013-03-25 23:03:00,
2013-03-25 19:05:00,38.2,32.0,29.51,NNE,23,4.0,5.0,78,0.00,,---,0.00,VWS V14.01,2013-03-25 23:05:00,
2013-03-25 19:08:00,38.1,32.2,29.51,NE,55,1.0,7.0,79,0.00,,---,0.00,VWS V14.01,2013-03-25 23:08:00,
2013-03-25 19:10:00,38.1,32.2,29.51,NE,55,1.0,7.0,79,0.00,,---,0.00,VWS V14.01,2013-03-25 23:10:00,
2013-03-25 19:13:00,38.0,32.1,29.51,NNW,344,0.0,9.0,79,0.00,,---,0.00,VWS V14.01,2013-03-25 23:13:00,
2013-03-25 19:15:00,38.0,32.1,29.51,NNW,344,0.0,9.0,79,0.00,,---,0.00,VWS V14.01,2013-03-25 23:15:00,
2013-03-25 19:18:00,37.9,32.3,29.51,NE,53,3.0,9.0,80,0.00,,---,0.00,VWS V14.01,2013-03-25 23:18:00,
2013-03-25 19:20:00,37.9,32.3,29.51,NE,53,3.0,9.0,80,0.00,,---,0.00,VWS V14.01,2013-03-25 23:20:00,
2013-03-25 19:23:00,37.8,32.2,29.51,NNE,33,1.0,4.0,80,0.00,,---,0.00,VWS V14.01,2013-03-25 23:23:00,
2013-03-25 19:25:00,37.8,32.2,29.51,NNE,33,1.0,4.0,80,0.00,,---,0.00,VWS V14.01,2013-03-25 23:25:00,
2013-03-25 19:28:00,37.6,32.0,29.51,ENE,62,2.0,6.0,80,0.00,,---,0.00,VWS V14.01,2013-03-25 23:28:00,
2013-03-25 19:30:00,37.6,32.0,29.51,NNE,22,3.0,4.0,80,0.00,,---,0.00,VWS V14.01,2013-03-25 23:30:00,
2013-03-25 19:33:00,37.5,32.2,29.51,ENE,70,9.0,13.0,81,0.00,,---,0.00,VWS V14.01,2013-03-25 23:33:00,
2013-03-25 19:35:00,37.6,32.3,29.51,ENE,75,7.0,10.0,81,0.00,,---,0.00,VWS V14.01,2013-03-25 23:35:00,
2013-03-25 19:39:00,37.6,32.0,29.51,ENE,65,0.0,2.0,80,0.00,,---,0.00,VWS V14.01,2013-03-25 23:39:00,
2013-03-25 19:40:00,37.6,32.0,29.51,NE,39,2.0,13.0,80,0.00,,---,0.00,VWS V14.01,2013-03-25 23:40:00,
2013-03-25 19:44:00,37.5,32.2,29.51,NE,34,2.0,3.0,81,0.00,,---,0.00,VWS V14.01,2013-03-25 23:44:00,
2013-03-25 19:45:00,37.5,32.2,29.51,NNE,23,2.0,5.0,81,0.00,,---,0.00,VWS V14.01,2013-03-25 23:45:00,
2013-03-25 19:49:00,37.4,32.1,29.52,ENE,57,0.0,2.0,81,0.00,,---,0.00,VWS V14.01,2013-03-25 23:49:00,
2013-03-25 19:50:00,37.5,32.2,29.52,NNW,333,2.0,6.0,81,0.00,,---,0.00,VWS V14.01,2013-03-25 23:50:00,
2013-03-25 19:54:00,37.4,32.1,29.52,ENE,57,0.0,9.0,81,0.00,,---,0.00,VWS V14.01,2013-03-25 23:54:00,
2013-03-25 19:55:00,37.4,32.1,29.51,NNE,24,9.0,11.0,81,0.00,,---,0.00,VWS V14.01,2013-03-25 23:55:00,
2013-03-25 19:59:00,37.3,32.0,29.52,NE,44,3.0,12.0,81,0.00,,---,0.00,VWS V14.01,2013-03-25 23:59:00,
2013-03-25 20:00:00,37.4,32.1,29.52,NE,45,4.0,9.0,81,0.00,,---,0.00,VWS V14.01,2013-03-26 00:00:00,
2013-03-25 20:05:00,37.4,32.1,29.52,ESE,115,6.0,11.0,81,0.00,,---,0.00,VWS V14.01,2013-03-26 00:05:00,
2013-03-25 20:10:00,37.4,32.1,29.52,NE,53,2.0,6.0,81,0.00,,---,0.00,VWS V14.01,2013-03-26 00:10:00,
2013-03-25 20:15:00,37.4,32.1,29.52,East,84,3.0,3.0,81,0.00,,---,0.00,VWS V14.01,2013-03-26 00:15:00,
2013-03-25 20:20:00,37.3,32.3,29.52,North,355,3.0,5.0,82,0.00,,---,0.00,VWS V14.01,2013-03-26 00:20:00,
2013-03-25 20:25:00,37.3,32.3,29.52,NNE,22,2.0,3.0,82,0.00,,---,0.00,VWS V14.01,2013-03-26 00:25:00,
2013-03-25 20:30:00,37.3,32.3,29.52,NE,39,1.0,5.0,82,0.00,,---,0.00,VWS V14.01,2013-03-26 00:30:00,
2013-03-25 20:35:00,37.2,32.2,29.52,NE,44,1.0,5.0,82,0.00,,---,0.00,VWS V14.01,2013-03-26 00:35:00,
2013-03-25 20:40:00,37.1,32.1,29.53,ENE,73,1.0,6.0,82,0.00,,---,0.00,VWS V14.01,2013-03-26 00:40:00,
2013-03-25 20:45:00,37.1,32.1,29.52,NNE,31,0.0,6.0,82,0.00,,---,0.00,VWS V14.01,2013-03-26 00:45:00,
2013-03-25 20:46:00,37.1,32.1,29.53,NNE,31,0.0,1.0,82,0.00,,---,0.00,VWS V14.01,2013-03-26 00:46:00,
2013-03-25 20:50:00,37.1,32.1,29.53,NNE,31,0.0,1.0,82,0.00,,---,0.00,VWS V14.01,2013-03-26 00:50:00,
2013-03-25 20:51:00,37.1,32.1,29.52,NNE,32,2.0,2.0,82,0.00,,---,0.00,VWS V14.01,2013-03-26 00:51:00,
2013-03-25 20:55:00,37.2,32.2,29.52,North,9,0.0,2.0,82,0.00,,---,0.00,VWS V14.01,2013-03-26 00:55:00,
2013-03-25 20:56:00,37.1,32.1,29.52,North,9,1.0,3.0,82,0.00,,---,0.00,VWS V14.01,2013-03-26 00:56:00,
2013-03-25 21:00:00,37.1,32.1,29.52,North,355,2.0,3.0,82,0.00,,---,0.00,VWS V14.01,2013-03-26 01:00:00,
2013-03-25 21:01:00,37.1,32.1,29.52,North,9,2.0,4.0,82,0.00,,---,0.00,VWS V14.01,2013-03-26 01:01:00,
2013-03-25 21:05:00,37.1,32.1,29.52,North,9,0.0,4.0,82,0.00,,---,0.00,VWS V14.01,2013-03-26 01:05:00,
2013-03-25 21:07:00,37.1,32.4,29.52,NNW,336,3.0,3.0,83,0.00,,---,0.00,VWS V14.01,2013-03-26 01:07:00,
2013-03-25 21:10:00,37.0,32.3,29.52,North,360,0.0,4.0,83,0.00,,---,0.00,VWS V14.01,2013-03-26 01:10:00,
2013-03-25 21:12:00,37.0,32.0,29.52,North,5,0.0,4.0,82,0.00,,---,0.00,VWS V14.01,2013-03-26 01:12:00,
2013-03-25 21:15:00,37.0,32.0,29.52,North,5,1.0,4.0,82,0.00,,---,0.00,VWS V14.01,2013-03-26 01:15:00,
2013-03-25 21:17:00,37.0,32.0,29.52,North,350,0.0,3.0,82,0.00,,---,0.00,VWS V14.01,2013-03-26 01:17:00,
2013-03-25 21:20:00,37.0,32.0,29.52,North,350,0.0,3.0,82,0.00,,---,0.00,VWS V14.01,2013-03-26 01:20:00,
2013-03-25 21:22:00,37.0,32.0,29.52,NNE,15,1.0,4.0,82,0.00,,---,0.00,VWS V14.01,2013-03-26 01:22:00,
2013-03-25 21:25:00,37.0,32.0,29.52,North,10,0.0,4.0,82,0.00,,---,0.00,VWS V14.01,2013-03-26 01:25:00,
2013-03-25 21:27:00,36.9,31.9,29.52,WNW,290,0.0,3.0,82,0.00,,---,0.00,VWS V14.01,2013-03-26 01:27:00,
2013-03-25 21:30:00,36.9,31.9,29.52,NNW,339,0.0,3.0,82,0.00,,---,0.00,VWS V14.01,2013-03-26 01:30:00,
2013-03-25 21:32:00,36.9,31.9,29.52,North,351,0.0,5.0,82,0.00,,---,0.00,VWS V14.01,2013-03-26 01:32:00,
2013-03-25 21:35:00,36.9,31.9,29.52,North,351,1.0,5.0,82,0.00,,---,0.00,VWS V14.01,2013-03-26 01:35:00,
2013-03-25 21:38:00,36.9,31.9,29.52,NNE,22,0.0,3.0,82,0.00,,---,0.00,VWS V14.01,2013-03-26 01:38:00,
2013-03-25 21:40:00,36.9,31.9,29.52,NNE,22,0.0,3.0,82,0.00,,---,0.00,VWS V14.01,2013-03-26 01:40:00,
2013-03-25 21:43:00,36.8,31.8,29.52,North,355,0.0,3.0,82,0.00,,---,0.00,VWS V14.01,2013-03-26 01:43:00,
2013-03-25 21:45:00,36.8,31.8,29.52,North,355,0.0,3.0,82,0.00,,---,0.00,VWS V14.01,2013-03-26 01:45:00,
2013-03-25 21:48:00,36.8,31.8,29.52,NE,38,0.0,3.0,82,0.00,,---,0.00,VWS V14.01,2013-03-26 01:48:00,
2013-03-25 21:50:00,36.8,31.8,29.52,NE,38,0.0,3.0,82,0.00,,---,0.00,VWS V14.01,2013-03-26 01:50:00,
2013-03-25 21:53:00,36.8,31.8,29.52,North,360,0.0,5.0,82,0.00,,---,0.00,VWS V14.01,2013-03-26 01:53:00,
2013-03-25 21:55:00,36.8,31.8,29.52,North,360,0.0,5.0,82,0.00,,---,0.00,VWS V14.01,2013-03-26 01:55:00,
2013-03-25 21:58:00,36.7,31.7,29.52,NW,315,0.0,3.0,82,0.00,,---,0.00,VWS V14.01,2013-03-26 01:58:00,
2013-03-25 22:00:00,36.7,31.7,29.52,NW,315,0.0,3.0,82,0.00,,---,0.00,VWS V14.01,2013-03-26 02:00:00,
2013-03-25 22:03:00,36.7,31.7,29.52,North,360,1.0,4.0,82,0.00,,---,0.00,VWS V14.01,2013-03-26 02:03:00,
2013-03-25 22:05:00,36.7,31.7,29.52,North,360,1.0,4.0,82,0.00,,---,0.00,VWS V14.01,2013-03-26 02:05:00,
2013-03-25 22:08:00,36.6,31.6,29.51,North,10,0.0,5.0,82,0.00,,---,0.00,VWS V14.01,2013-03-26 02:08:00,
2013-03-25 22:10:00,36.6,31.6,29.51,North,10,0.0,5.0,82,0.00,,---,0.00,VWS V14.01,2013-03-26 02:10:00,
2013-03-25 22:13:00,36.6,31.6,29.51,NNE,15,2.0,2.0,82,0.00,,---,0.00,VWS V14.01,2013-03-26 02:13:00,
2013-03-25 22:15:00,36.6,31.6,29.51,NNE,15,2.0,2.0,82,0.00,,---,0.00,VWS V14.01,2013-03-26 02:15:00,
2013-03-25 22:18:00,36.5,31.5,29.51,NNW,328,0.0,3.0,82,0.00,,---,0.00,VWS V14.01,2013-03-26 02:18:00,
2013-03-25 22:20:00,36.5,31.5,29.51,NNW,328,0.0,3.0,82,0.00,,---,0.00,VWS V14.01,2013-03-26 02:20:00,
2013-03-25 22:23:00,36.6,31.6,29.51,NNW,340,0.0,0.0,82,0.00,,---,0.00,VWS V14.01,2013-03-26 02:23:00,
2013-03-25 22:25:00,36.6,31.6,29.51,NNW,340,0.0,6.0,82,0.00,,---,0.00,VWS V14.01,2013-03-26 02:25:00,
2013-03-25 22:28:00,36.6,31.3,29.51,NW,324,0.0,1.0,81,0.00,,---,0.00,VWS V14.01,2013-03-26 02:28:00,
2013-03-25 22:30:00,36.6,31.3,29.51,NW,324,0.0,4.0,81,0.00,,---,0.00,VWS V14.01,2013-03-26 02:30:00,
2013-03-25 22:33:00,36.6,31.3,29.51,North,11,1.0,1.0,81,0.00,,---,0.00,VWS V14.01,2013-03-26 02:33:00,
2013-03-25 22:35:00,36.6,31.3,29.51,North,11,0.0,2.0,81,0.00,,---,0.00,VWS V14.01,2013-03-26 02:35:00,
2013-03-25 22:39:00,36.6,31.3,29.51,NNE,13,0.0,2.0,81,0.00,,---,0.00,VWS V14.01,2013-03-26 02:39:00,
2013-03-25 22:40:00,36.6,31.3,29.51,NNE,13,0.0,2.0,81,0.00,,---,0.00,VWS V14.01,2013-03-26 02:40:00,
2013-03-25 22:44:00,36.6,31.3,29.51,NNW,336,0.0,1.0,81,0.00,,---,0.00,VWS V14.01,2013-03-26 02:44:00,
2013-03-25 22:45:00,36.6,31.3,29.51,NNW,336,1.0,3.0,81,0.00,,---,0.00,VWS V14.01,2013-03-26 02:45:00,
2013-03-25 22:49:00,36.6,31.0,29.51,NE,42,0.0,2.0,80,0.00,,---,0.00,VWS V14.01,2013-03-26 02:49:00,
2013-03-25 22:50:00,36.6,31.3,29.51,NE,42,2.0,4.0,81,0.00,,---,0.00,VWS V14.01,2013-03-26 02:50:00,
2013-03-25 22:54:00,36.7,31.1,29.51,West,276,1.0,3.0,80,0.00,,---,0.00,VWS V14.01,2013-03-26 02:54:00,
2013-03-25 22:55:00,36.6,31.0,29.50,NNE,23,3.0,3.0,80,0.00,,---,0.00,VWS V14.01,2013-03-26 02:55:00,
2013-03-25 22:59:00,36.7,31.1,29.50,North,5,1.0,4.0,80,0.00,,---,0.00,VWS V14.01,2013-03-26 02:59:00,
2013-03-25 23:00:00,36.7,31.1,29.51,NNE,13,3.0,3.0,80,0.00,,---,0.00,VWS V14.01,2013-03-26 03:00:00,
2013-03-25 23:04:00,36.7,31.1,29.50,NNW,344,0.0,1.0,80,0.00,,---,0.00,VWS V14.01,2013-03-26 03:04:00,
2013-03-25 23:05:00,36.7,31.1,29.50,NNW,344,0.0,4.0,80,0.00,,---,0.00,VWS V14.01,2013-03-26 03:05:00,
2013-03-25 23:10:00,36.6,30.7,29.50,NE,45,1.0,4.0,79,0.00,,---,0.00,VWS V14.01,2013-03-26 03:10:00,
2013-03-25 23:15:00,36.7,30.8,29.50,North,355,1.0,4.0,79,0.00,,---,0.00,VWS V14.01,2013-03-26 03:15:00,
2013-03-25 23:20:00,36.7,30.8,29.50,NNE,12,1.0,2.0,79,0.00,,---,0.00,VWS V14.01,2013-03-26 03:20:00,
2013-03-25 23:25:00,36.7,30.8,29.50,West,276,1.0,2.0,79,0.00,,---,0.00,VWS V14.01,2013-03-26 03:25:00,
2013-03-25 23:30:00,36.6,30.4,29.50,NW,318,0.0,4.0,78,0.00,,---,0.00,VWS V14.01,2013-03-26 03:30:00,
2013-03-25 23:35:00,36.7,30.5,29.50,NNW,333,4.0,4.0,78,0.00,,---,0.00,VWS V14.01,2013-03-26 03:35:00,
2013-03-25 23:40:00,36.7,30.5,29.50,North,355,0.0,5.0,78,0.00,,---,0.00,VWS V14.01,2013-03-26 03:40:00,
2013-03-25 23:41:00,36.7,32.0,29.50,NNW,342,1.0,3.0,83,0.00,,---,0.00,VWS V14.01,2013-03-26 03:41:00,
2013-03-25 23:45:00,36.7,32.0,29.50,NW,315,1.0,3.0,83,0.00,,---,0.00,VWS V14.01,2013-03-26 03:45:00,
2013-03-25 23:47:00,36.7,30.2,29.50,NNW,342,0.0,4.0,77,0.00,,---,0.00,VWS V14.01,2013-03-26 03:47:00,
2013-03-25 23:50:00,36.7,30.2,29.50,NNW,342,2.0,4.0,77,0.00,,---,0.00,VWS V14.01,2013-03-26 03:50:00,
2013-03-25 23:53:00,36.8,30.3,29.50,NNW,342,0.0,2.0,77,0.00,,---,0.00,VWS V14.01,2013-03-26 03:53:00,
2013-03-25 23:55:00,36.8,30.3,29.50,NNW,342,0.0,2.0,77,0.00,,---,0.00,VWS V14.01,2013-03-26 03:55:00,
2013-03-25 23:58:00,36.7,30.2,29.50,NNW,329,0.0,3.0,77,0.00,,---,0.00,VWS V14.01,2013-03-26 03:58:00,